Terminal Aerodrome Forecast
Issued by NWS

Home | Current Version | Previous Version | Text Only | Print | Product List | Glossary On
Versions: 1 2 3 4 5 6 7 8 9 10 11 12
344
FTPA31 PHFO 172342
TAFHMK
TAF
PHMK 172342Z 1800/1824 03013G18KT P6SM FEW025 BKN035
     FM180600 05011KT P6SM FEW025 SCT040
     FM182100 06014G20KT P6SM FEW025 SCT035=

USA.gov is the U.S. government's official web portal to all federal, state and local government web resources and services.